sensor_id;sensor_type;location;lat;lon;timestamp;noise_LAeq;noise_LA_min;noise_LA_max;noise_LA01;noise_LA95
72466;Laerm;60471;52.150;4.508;2024-03-22T00:01:52;68.34;42.39;86.89;;
72466;Laerm;60471;52.150;4.508;2024-03-22T00:04:18;68.34;41.84;87.86;;
72466;Laerm;60471;52.150;4.508;2024-03-22T00:06:48;67.75;42.36;86.54;;
72466;Laerm;60471;52.150;4.508;2024-03-22T00:09:16;67.91;42.42;87.38;;
72466;Laerm;60471;52.150;4.508;2024-03-22T00:11:44;68.11;41.47;88.10;;
72466;Laerm;60471;52.150;4.508;2024-03-22T00:14:11;67.94;41.43;87.50;;
72466;Laerm;60471;52.150;4.508;2024-03-22T00:16:38;67.85;40.76;86.82;;
72466;Laerm;60471;52.150;4.508;2024-03-22T00:19:04;68.27;41.29;87.56;;
72466;Laerm;60471;52.150;4.508;2024-03-22T00:21:30;68.36;40.76;88.62;;
72466;Laerm;60471;52.150;4.508;2024-03-22T00:23:57;67.87;41.37;88.16;;
72466;Laerm;60471;52.150;4.508;2024-03-22T00:26:24;67.95;41.59;86.75;;
72466;Laerm;60471;52.150;4.508;2024-03-22T00:28:50;68.01;41.50;86.46;;
72466;Laerm;60471;52.150;4.508;2024-03-22T00:31:17;67.78;41.20;86.52;;
72466;Laerm;60471;52.150;4.508;2024-03-22T00:33:43;67.92;41.87;86.49;;
72466;Laerm;60471;52.150;4.508;2024-03-22T00:36:09;67.88;42.07;86.83;;
72466;Laerm;60471;52.150;4.508;2024-03-22T00:38:36;67.98;40.35;86.07;;
72466;Laerm;60471;52.150;4.508;2024-03-22T00:41:02;67.98;43.67;87.27;;
72466;Laerm;60471;52.150;4.508;2024-03-22T00:43:28;67.79;42.22;86.28;;
72466;Laerm;60471;52.150;4.508;2024-03-22T00:45:54;67.94;40.84;85.39;;
72466;Laerm;60471;52.150;4.508;2024-03-22T00:48:21;68.40;41.84;88.99;;
72466;Laerm;60471;52.150;4.508;2024-03-22T00:50:47;67.88;41.40;85.99;;
72466;Laerm;60471;52.150;4.508;2024-03-22T00:53:13;67.80;40.62;86.59;;
72466;Laerm;60471;52.150;4.508;2024-03-22T00:55:40;67.91;41.07;87.23;;
72466;Laerm;60471;52.150;4.508;2024-03-22T00:58:06;67.86;40.65;86.56;;
72466;Laerm;60471;52.150;4.508;2024-03-22T01:00:32;67.89;41.22;86.79;;
72466;Laerm;60471;52.150;4.508;2024-03-22T01:02:58;68.00;41.29;87.01;;
72466;Laerm;60471;52.150;4.508;2024-03-22T01:05:24;67.92;41.43;86.95;;
72466;Laerm;60471;52.150;4.508;2024-03-22T01:07:52;67.92;40.82;86.28;;
72466;Laerm;60471;52.150;4.508;2024-03-22T01:10:18;67.95;40.18;87.21;;
72466;Laerm;60471;52.150;4.508;2024-03-22T01:12:44;67.92;40.94;87.08;;
72466;Laerm;60471;52.150;4.508;2024-03-22T01:15:11;68.03;41.28;86.61;;
72466;Laerm;60471;52.150;4.508;2024-03-22T01:17:37;68.05;40.42;86.56;;
72466;Laerm;60471;52.150;4.508;2024-03-22T01:20:03;68.00;39.75;87.81;;
72466;Laerm;60471;52.150;4.508;2024-03-22T01:22:30;67.98;38.96;87.23;;
72466;Laerm;60471;52.150;4.508;2024-03-22T01:24:57;68.07;41.06;87.66;;
72466;Laerm;60471;52.150;4.508;2024-03-22T01:27:23;67.99;40.62;86.88;;
72466;Laerm;60471;52.150;4.508;2024-03-22T01:29:49;68.01;41.06;87.61;;
72466;Laerm;60471;52.150;4.508;2024-03-22T01:32:15;68.07;40.45;89.71;;
72466;Laerm;60471;52.150;4.508;2024-03-22T01:34:41;67.94;41.60;86.39;;
72466;Laerm;60471;52.150;4.508;2024-03-22T01:37:08;68.27;41.42;88.21;;
72466;Laerm;60471;52.150;4.508;2024-03-22T01:39:34;68.22;40.92;88.90;;
72466;Laerm;60471;52.150;4.508;2024-03-22T01:42:00;67.96;39.94;86.91;;
72466;Laerm;60471;52.150;4.508;2024-03-22T01:44:31;67.92;41.95;87.55;;
72466;Laerm;60471;52.150;4.508;2024-03-22T01:46:59;67.88;40.29;87.41;;
72466;Laerm;60471;52.150;4.508;2024-03-22T01:49:28;68.01;40.39;86.96;;
72466;Laerm;60471;52.150;4.508;2024-03-22T01:51:55;68.12;39.47;86.95;;
72466;Laerm;60471;52.150;4.508;2024-03-22T01:54:21;68.29;38.58;87.36;;
72466;Laerm;60471;52.150;4.508;2024-03-22T01:56:48;67.95;38.47;86.95;;
72466;Laerm;60471;52.150;4.508;2024-03-22T01:59:14;68.05;39.85;87.91;;
72466;Laerm;60471;52.150;4.508;2024-03-22T02:01:42;68.13;38.85;88.14;;
72466;Laerm;60471;52.150;4.508;2024-03-22T02:04:09;68.10;40.23;87.26;;
72466;Laerm;60471;52.150;4.508;2024-03-22T02:06:35;68.02;39.16;87.24;;
72466;Laerm;60471;52.150;4.508;2024-03-22T02:09:01;68.16;39.10;88.49;;
72466;Laerm;60471;52.150;4.508;2024-03-22T02:11:30;67.96;38.53;86.12;;
72466;Laerm;60471;52.150;4.508;2024-03-22T02:13:57;67.94;40.23;88.43;;
72466;Laerm;60471;52.150;4.508;2024-03-22T02:16:24;68.30;40.45;88.02;;
72466;Laerm;60471;52.150;4.508;2024-03-22T02:18:50;68.12;40.90;88.95;;
72466;Laerm;60471;52.150;4.508;2024-03-22T02:21:16;68.22;41.47;87.37;;
72466;Laerm;60471;52.150;4.508;2024-03-22T02:23:42;68.01;42.78;87.50;;
72466;Laerm;60471;52.150;4.508;2024-03-22T02:26:09;68.17;39.31;87.09;;
72466;Laerm;60471;52.150;4.508;2024-03-22T02:28:36;67.91;40.14;86.48;;
72466;Laerm;60471;52.150;4.508;2024-03-22T02:31:03;67.81;42.21;86.00;;
72466;Laerm;60471;52.150;4.508;2024-03-22T02:33:30;68.27;40.90;87.58;;
72466;Laerm;60471;52.150;4.508;2024-03-22T02:35:56;68.10;41.77;87.79;;
72466;Laerm;60471;52.150;4.508;2024-03-22T02:38:23;67.99;38.88;87.41;;
72466;Laerm;60471;52.150;4.508;2024-03-22T02:40:52;67.91;40.76;86.14;;
72466;Laerm;60471;52.150;4.508;2024-03-22T02:43:19;68.14;42.10;87.78;;
72466;Laerm;60471;52.150;4.508;2024-03-22T02:45:47;67.86;40.97;88.95;;
72466;Laerm;60471;52.150;4.508;2024-03-22T02:48:14;68.08;40.25;86.94;;
72466;Laerm;60471;52.150;4.508;2024-03-22T02:50:41;68.10;39.64;86.83;;
72466;Laerm;60471;52.150;4.508;2024-03-22T02:53:08;67.86;41.62;86.36;;
72466;Laerm;60471;52.150;4.508;2024-03-22T02:55:38;67.93;40.42;86.59;;
72466;Laerm;60471;52.150;4.508;2024-03-22T02:58:06;67.88;41.06;86.52;;
72466;Laerm;60471;52.150;4.508;2024-03-22T03:00:39;68.09;41.65;88.22;;
72466;Laerm;60471;52.150;4.508;2024-03-22T03:03:06;67.93;42.09;86.71;;
72466;Laerm;60471;52.150;4.508;2024-03-22T03:05:33;68.08;41.70;88.06;;
72466;Laerm;60471;52.150;4.508;2024-03-22T03:08:01;67.96;42.75;86.71;;
72466;Laerm;60471;52.150;4.508;2024-03-22T03:10:27;68.11;42.85;86.55;;
72466;Laerm;60471;52.150;4.508;2024-03-22T03:12:56;68.04;44.15;87.08;;
72466;Laerm;60471;52.150;4.508;2024-03-22T03:15:22;67.89;42.54;86.23;;
72466;Laerm;60471;52.150;4.508;2024-03-22T03:17:48;68.13;43.19;87.18;;
72466;Laerm;60471;52.150;4.508;2024-03-22T03:20:15;67.96;43.49;86.79;;
72466;Laerm;60471;52.150;4.508;2024-03-22T03:22:41;68.20;44.83;87.05;;
72466;Laerm;60471;52.150;4.508;2024-03-22T03:25:08;68.25;44.12;87.20;;
72466;Laerm;60471;52.150;4.508;2024-03-22T03:27:34;68.23;44.16;87.49;;
72466;Laerm;60471;52.150;4.508;2024-03-22T03:30:01;68.11;43.59;87.27;;
72466;Laerm;60471;52.150;4.508;2024-03-22T03:32:28;67.91;43.35;86.68;;
72466;Laerm;60471;52.150;4.508;2024-03-22T03:34:54;68.12;43.70;86.60;;
72466;Laerm;60471;52.150;4.508;2024-03-22T03:37:20;68.24;44.95;87.32;;
72466;Laerm;60471;52.150;4.508;2024-03-22T03:39:47;68.31;43.86;87.04;;
72466;Laerm;60471;52.150;4.508;2024-03-22T03:42:13;68.14;43.50;87.20;;
72466;Laerm;60471;52.150;4.508;2024-03-22T03:44:40;68.11;43.52;87.69;;
72466;Laerm;60471;52.150;4.508;2024-03-22T03:47:08;68.11;43.78;87.20;;
72466;Laerm;60471;52.150;4.508;2024-03-22T03:49:35;68.40;45.26;88.15;;
72466;Laerm;60471;52.150;4.508;2024-03-22T03:52:01;68.12;46.14;86.85;;
72466;Laerm;60471;52.150;4.508;2024-03-22T03:54:28;68.31;44.74;88.01;;
72466;Laerm;60471;52.150;4.508;2024-03-22T03:56:54;68.21;45.31;87.53;;
72466;Laerm;60471;52.150;4.508;2024-03-22T03:59:20;68.48;44.74;87.60;;
72466;Laerm;60471;52.150;4.508;2024-03-22T04:01:47;68.14;45.00;87.25;;
72466;Laerm;60471;52.150;4.508;2024-03-22T04:04:13;68.17;45.17;87.71;;
72466;Laerm;60471;52.150;4.508;2024-03-22T04:06:39;67.99;46.24;86.60;;
72466;Laerm;60471;52.150;4.508;2024-03-22T04:09:06;68.11;45.81;87.41;;
72466;Laerm;60471;52.150;4.508;2024-03-22T04:11:32;68.25;47.39;88.31;;
72466;Laerm;60471;52.150;4.508;2024-03-22T04:13:58;68.44;46.12;88.13;;
72466;Laerm;60471;52.150;4.508;2024-03-22T04:16:24;68.34;47.51;87.14;;
72466;Laerm;60471;52.150;4.508;2024-03-22T04:18:50;68.11;47.52;86.66;;
72466;Laerm;60471;52.150;4.508;2024-03-22T04:21:17;68.33;47.55;87.98;;
72466;Laerm;60471;52.150;4.508;2024-03-22T04:23:43;68.41;48.13;86.66;;
72466;Laerm;60471;52.150;4.508;2024-03-22T04:26:09;68.37;47.84;88.24;;
72466;Laerm;60471;52.150;4.508;2024-03-22T04:28:36;68.48;48.77;88.39;;
72466;Laerm;60471;52.150;4.508;2024-03-22T04:31:09;68.34;48.51;87.70;;
72466;Laerm;60471;52.150;4.508;2024-03-22T04:33:37;68.39;48.71;88.73;;
72466;Laerm;60471;52.150;4.508;2024-03-22T04:36:04;68.39;48.51;87.41;;
72466;Laerm;60471;52.150;4.508;2024-03-22T04:38:31;68.50;50.10;86.76;;
72466;Laerm;60471;52.150;4.508;2024-03-22T04:40:58;68.30;49.01;87.76;;
72466;Laerm;60471;52.150;4.508;2024-03-22T04:43:24;68.37;50.91;86.35;;
72466;Laerm;60471;52.150;4.508;2024-03-22T04:45:51;68.40;49.77;87.28;;
72466;Laerm;60471;52.150;4.508;2024-03-22T04:48:22;68.20;49.81;87.70;;
72466;Laerm;60471;52.150;4.508;2024-03-22T04:50:52;68.31;49.00;87.16;;
72466;Laerm;60471;52.150;4.508;2024-03-22T04:53:22;68.50;48.87;90.83;;
72466;Laerm;60471;52.150;4.508;2024-03-22T04:55:50;68.73;49.92;87.20;;
72466;Laerm;60471;52.150;4.508;2024-03-22T04:58:17;68.42;50.05;86.25;;
72466;Laerm;60471;52.150;4.508;2024-03-22T05:00:44;68.57;50.18;88.21;;
72466;Laerm;60471;52.150;4.508;2024-03-22T05:03:11;68.76;50.38;88.19;;
72466;Laerm;60471;52.150;4.508;2024-03-22T05:05:38;68.64;50.81;87.66;;
72466;Laerm;60471;52.150;4.508;2024-03-22T05:08:06;68.78;51.43;87.46;;
72466;Laerm;60471;52.150;4.508;2024-03-22T05:10:33;68.56;51.24;88.59;;
72466;Laerm;60471;52.150;4.508;2024-03-22T05:13:00;68.72;51.85;87.29;;
72466;Laerm;60471;52.150;4.508;2024-03-22T05:15:26;68.64;50.67;87.99;;
72466;Laerm;60471;52.150;4.508;2024-03-22T05:17:57;68.59;50.87;87.40;;
72466;Laerm;60471;52.150;4.508;2024-03-22T05:20:23;68.61;50.89;87.68;;
72466;Laerm;60471;52.150;4.508;2024-03-22T05:22:50;68.95;50.90;88.08;;
72466;Laerm;60471;52.150;4.508;2024-03-22T05:25:16;68.80;50.46;87.98;;
72466;Laerm;60471;52.150;4.508;2024-03-22T05:27:44;68.65;51.09;86.46;;
72466;Laerm;60471;52.150;4.508;2024-03-22T05:30:12;68.70;52.74;88.51;;
72466;Laerm;60471;52.150;4.508;2024-03-22T05:32:42;68.72;51.80;87.88;;
72466;Laerm;60471;52.150;4.508;2024-03-22T05:35:08;68.71;51.59;87.92;;
72466;Laerm;60471;52.150;4.508;2024-03-22T05:37:35;68.83;51.62;87.87;;
72466;Laerm;60471;52.150;4.508;2024-03-22T05:40:02;68.78;52.56;86.66;;
72466;Laerm;60471;52.150;4.508;2024-03-22T05:42:30;68.81;51.12;87.68;;
72466;Laerm;60471;52.150;4.508;2024-03-22T05:44:57;68.91;52.06;87.37;;
72466;Laerm;60471;52.150;4.508;2024-03-22T05:47:23;69.09;52.29;88.29;;
72466;Laerm;60471;52.150;4.508;2024-03-22T05:49:49;69.06;51.55;88.59;;
72466;Laerm;60471;52.150;4.508;2024-03-22T05:52:15;68.96;52.04;87.31;;
72466;Laerm;60471;52.150;4.508;2024-03-22T05:54:42;68.92;51.68;87.43;;
72466;Laerm;60471;52.150;4.508;2024-03-22T05:57:08;68.91;51.94;87.98;;
72466;Laerm;60471;52.150;4.508;2024-03-22T05:59:34;68.79;50.21;87.64;;
72466;Laerm;60471;52.150;4.508;2024-03-22T06:02:00;68.94;51.39;87.76;;
72466;Laerm;60471;52.150;4.508;2024-03-22T06:04:27;68.87;51.15;88.12;;
72466;Laerm;60471;52.150;4.508;2024-03-22T06:06:53;69.26;51.87;88.86;;
72466;Laerm;60471;52.150;4.508;2024-03-22T06:09:20;68.81;50.87;86.83;;
72466;Laerm;60471;52.150;4.508;2024-03-22T06:12:06;68.07;50.74;87.39;;
72466;Laerm;60471;52.150;4.508;2024-03-22T06:14:33;68.86;52.08;86.43;;
72466;Laerm;60471;52.150;4.508;2024-03-22T06:16:59;68.83;51.59;88.25;;
72466;Laerm;60471;52.150;4.508;2024-03-22T06:19:25;69.02;52.41;88.98;;
72466;Laerm;60471;52.150;4.508;2024-03-22T06:21:51;69.09;52.79;88.65;;
72466;Laerm;60471;52.150;4.508;2024-03-22T06:24:18;69.09;52.65;87.47;;
72466;Laerm;60471;52.150;4.508;2024-03-22T06:26:44;68.99;52.47;87.80;;
72466;Laerm;60471;52.150;4.508;2024-03-22T06:29:10;68.83;52.28;87.63;;
72466;Laerm;60471;52.150;4.508;2024-03-22T06:31:37;68.99;52.11;86.50;;
72466;Laerm;60471;52.150;4.508;2024-03-22T06:34:03;69.06;52.25;87.82;;
72466;Laerm;60471;52.150;4.508;2024-03-22T06:36:31;69.11;53.08;88.17;;
72466;Laerm;60471;52.150;4.508;2024-03-22T06:38:58;69.13;53.34;88.51;;
72466;Laerm;60471;52.150;4.508;2024-03-22T06:41:28;68.92;51.72;87.78;;
72466;Laerm;60471;52.150;4.508;2024-03-22T06:43:54;69.02;53.43;87.84;;
72466;Laerm;60471;52.150;4.508;2024-03-22T06:46:20;69.03;52.46;87.53;;
72466;Laerm;60471;52.150;4.508;2024-03-22T06:48:47;68.83;52.34;88.06;;
72466;Laerm;60471;52.150;4.508;2024-03-22T06:51:13;68.81;52.41;88.64;;
72466;Laerm;60471;52.150;4.508;2024-03-22T06:53:39;68.80;51.79;87.86;;
72466;Laerm;60471;52.150;4.508;2024-03-22T06:56:06;68.80;52.01;88.79;;
72466;Laerm;60471;52.150;4.508;2024-03-22T06:58:38;68.65;52.90;88.32;;
72466;Laerm;60471;52.150;4.508;2024-03-22T07:01:05;68.75;53.53;88.63;;
72466;Laerm;60471;52.150;4.508;2024-03-22T07:03:31;68.72;52.82;88.13;;
72466;Laerm;60471;52.150;4.508;2024-03-22T07:05:57;68.82;54.40;87.39;;
72466;Laerm;60471;52.150;4.508;2024-03-22T07:08:24;68.58;54.08;87.62;;
72466;Laerm;60471;52.150;4.508;2024-03-22T07:10:51;68.76;53.35;88.15;;
72466;Laerm;60471;52.150;4.508;2024-03-22T07:13:19;68.76;53.45;88.03;;
72466;Laerm;60471;52.150;4.508;2024-03-22T07:15:46;69.05;53.55;88.13;;
72466;Laerm;60471;52.150;4.508;2024-03-22T07:18:16;68.84;53.44;87.74;;
72466;Laerm;60471;52.150;4.508;2024-03-22T07:20:42;68.99;54.31;89.43;;
72466;Laerm;60471;52.150;4.508;2024-03-22T07:23:11;68.95;52.63;87.48;;
72466;Laerm;60471;52.150;4.508;2024-03-22T07:25:37;70.54;57.51;93.43;;
72466;Laerm;60471;52.150;4.508;2024-03-22T07:28:04;69.01;54.99;87.23;;
72466;Laerm;60471;52.150;4.508;2024-03-22T07:30:30;69.11;57.23;87.71;;
72466;Laerm;60471;52.150;4.508;2024-03-22T07:32:57;69.05;54.67;88.64;;
72466;Laerm;60471;52.150;4.508;2024-03-22T07:35:23;68.94;54.39;89.31;;
72466;Laerm;60471;52.150;4.508;2024-03-22T07:37:51;69.26;55.34;88.21;;
72466;Laerm;60471;52.150;4.508;2024-03-22T07:40:17;68.97;55.10;87.87;;
72466;Laerm;60471;52.150;4.508;2024-03-22T07:42:43;69.51;55.19;88.37;;
72466;Laerm;60471;52.150;4.508;2024-03-22T07:45:09;69.15;55.42;87.60;;
72466;Laerm;60471;52.150;4.508;2024-03-22T07:47:36;69.20;57.30;87.58;;
72466;Laerm;60471;52.150;4.508;2024-03-22T07:50:04;69.04;54.86;87.07;;
72466;Laerm;60471;52.150;4.508;2024-03-22T07:52:30;69.34;55.93;89.47;;
72466;Laerm;60471;52.150;4.508;2024-03-22T07:54:56;69.39;57.01;87.87;;
72466;Laerm;60471;52.150;4.508;2024-03-22T07:57:22;69.50;55.83;87.67;;
72466;Laerm;60471;52.150;4.508;2024-03-22T07:59:50;69.04;56.38;87.17;;
72466;Laerm;60471;52.150;4.508;2024-03-22T08:02:19;69.02;55.03;87.87;;
72466;Laerm;60471;52.150;4.508;2024-03-22T08:04:45;69.05;55.49;88.27;;
72466;Laerm;60471;52.150;4.508;2024-03-22T08:07:11;69.21;56.37;89.40;;
72466;Laerm;60471;52.150;4.508;2024-03-22T08:09:37;68.69;53.34;87.50;;
72466;Laerm;60471;52.150;4.508;2024-03-22T08:12:04;68.64;51.68;88.25;;
72466;Laerm;60471;52.150;4.508;2024-03-22T08:14:30;68.86;52.87;87.34;;
72466;Laerm;60471;52.150;4.508;2024-03-22T08:16:56;68.39;52.06;86.56;;
72466;Laerm;60471;52.150;4.508;2024-03-22T08:19:23;68.98;54.51;87.67;;
72466;Laerm;60471;52.150;4.508;2024-03-22T08:21:49;68.76;53.73;86.30;;
72466;Laerm;60471;52.150;4.508;2024-03-22T08:24:15;68.86;53.26;88.39;;
72466;Laerm;60471;52.150;4.508;2024-03-22T08:26:41;68.88;53.27;88.54;;
72466;Laerm;60471;52.150;4.508;2024-03-22T08:29:11;68.63;52.42;87.75;;
72466;Laerm;60471;52.150;4.508;2024-03-22T08:31:37;68.63;52.15;87.59;;
72466;Laerm;60471;52.150;4.508;2024-03-22T08:34:03;68.80;52.27;87.09;;
72466;Laerm;60471;52.150;4.508;2024-03-22T08:36:31;68.71;52.83;88.99;;
72466;Laerm;60471;52.150;4.508;2024-03-22T08:38:57;68.75;51.98;87.53;;
72466;Laerm;60471;52.150;4.508;2024-03-22T08:41:24;68.66;53.54;87.73;;
72466;Laerm;60471;52.150;4.508;2024-03-22T08:43:50;69.09;53.06;87.94;;
72466;Laerm;60471;52.150;4.508;2024-03-22T08:46:16;68.97;53.48;88.22;;
72466;Laerm;60471;52.150;4.508;2024-03-22T08:48:42;68.89;54.39;86.89;;
72466;Laerm;60471;52.150;4.508;2024-03-22T08:51:08;68.90;54.23;87.70;;
72466;Laerm;60471;52.150;4.508;2024-03-22T08:53:35;68.77;54.10;86.48;;
72466;Laerm;60471;52.150;4.508;2024-03-22T08:56:01;68.90;54.37;88.16;;
72466;Laerm;60471;52.150;4.508;2024-03-22T08:58:27;69.09;52.57;91.26;;
72466;Laerm;60471;52.150;4.508;2024-03-22T09:00:54;68.99;53.47;88.18;;
72466;Laerm;60471;52.150;4.508;2024-03-22T09:03:20;69.03;54.36;87.53;;
72466;Laerm;60471;52.150;4.508;2024-03-22T09:05:47;68.62;53.54;87.72;;
72466;Laerm;60471;52.150;4.508;2024-03-22T09:08:13;68.88;54.43;88.61;;
72466;Laerm;60471;52.150;4.508;2024-03-22T09:10:39;68.86;54.67;89.03;;
72466;Laerm;60471;52.150;4.508;2024-03-22T09:13:06;68.96;53.17;87.55;;
72466;Laerm;60471;52.150;4.508;2024-03-22T09:15:32;68.87;53.21;88.43;;
72466;Laerm;60471;52.150;4.508;2024-03-22T09:17:59;68.91;54.31;87.92;;
72466;Laerm;60471;52.150;4.508;2024-03-22T09:20:25;69.03;54.43;88.14;;
72466;Laerm;60471;52.150;4.508;2024-03-22T09:22:51;69.22;57.68;87.59;;
72466;Laerm;60471;52.150;4.508;2024-03-22T09:25:18;69.03;57.16;86.41;;
72466;Laerm;60471;52.150;4.508;2024-03-22T09:27:44;69.19;57.36;87.96;;
72466;Laerm;60471;52.150;4.508;2024-03-22T09:30:11;68.92;55.80;88.09;;
72466;Laerm;60471;52.150;4.508;2024-03-22T09:32:37;69.21;56.54;89.06;;
72466;Laerm;60471;52.150;4.508;2024-03-22T09:35:04;69.12;54.04;87.89;;
72466;Laerm;60471;52.150;4.508;2024-03-22T09:37:31;69.10;54.46;88.02;;
72466;Laerm;60471;52.150;4.508;2024-03-22T09:39:57;68.89;53.76;87.77;;
72466;Laerm;60471;52.150;4.508;2024-03-22T09:42:23;69.09;53.76;87.76;;
72466;Laerm;60471;52.150;4.508;2024-03-22T09:44:51;69.10;54.21;88.33;;
72466;Laerm;60471;52.150;4.508;2024-03-22T09:47:18;68.87;54.32;87.31;;
72466;Laerm;60471;52.150;4.508;2024-03-22T09:49:47;68.84;53.63;87.24;;
72466;Laerm;60471;52.150;4.508;2024-03-22T09:52:16;68.88;52.76;87.86;;
72466;Laerm;60471;52.150;4.508;2024-03-22T09:54:45;69.14;53.32;88.28;;
72466;Laerm;60471;52.150;4.508;2024-03-22T09:57:15;68.89;53.79;87.44;;
72466;Laerm;60471;52.150;4.508;2024-03-22T09:59:45;61.58;53.82;77.76;;
72466;Laerm;60471;52.150;4.508;2024-03-22T10:02:13;69.35;55.80;87.83;;
72466;Laerm;60471;52.150;4.508;2024-03-22T10:04:43;69.26;55.38;88.28;;
72466;Laerm;60471;52.150;4.508;2024-03-22T10:07:09;69.01;55.93;89.03;;
72466;Laerm;60471;52.150;4.508;2024-03-22T10:09:37;69.80;56.39;89.57;;
72466;Laerm;60471;52.150;4.508;2024-03-22T10:12:06;69.08;55.90;86.81;;
72466;Laerm;60471;52.150;4.508;2024-03-22T10:14:32;69.21;54.09;86.89;;
72466;Laerm;60471;52.150;4.508;2024-03-22T10:16:59;69.07;56.61;87.22;;
72466;Laerm;60471;52.150;4.508;2024-03-22T10:19:26;69.07;55.36;87.17;;
72466;Laerm;60471;52.150;4.508;2024-03-22T10:22:02;68.83;55.44;87.89;;
72466;Laerm;60471;52.150;4.508;2024-03-22T10:24:30;68.98;56.55;88.73;;
72466;Laerm;60471;52.150;4.508;2024-03-22T10:26:56;68.95;54.75;87.11;;
72466;Laerm;60471;52.150;4.508;2024-03-22T10:29:23;69.09;56.32;87.34;;
72466;Laerm;60471;52.150;4.508;2024-03-22T10:31:53;69.09;54.97;90.24;;
72466;Laerm;60471;52.150;4.508;2024-03-22T10:34:22;68.73;50.52;88.22;;
72466;Laerm;60471;52.150;4.508;2024-03-22T10:36:49;68.78;51.26;87.41;;
72466;Laerm;60471;52.150;4.508;2024-03-22T10:39:17;68.92;51.53;87.42;;
72466;Laerm;60471;52.150;4.508;2024-03-22T10:41:46;68.82;51.74;87.83;;
72466;Laerm;60471;52.150;4.508;2024-03-22T10:44:12;68.54;51.37;86.87;;
72466;Laerm;60471;52.150;4.508;2024-03-22T10:46:45;68.93;51.22;87.31;;
72466;Laerm;60471;52.150;4.508;2024-03-22T10:49:17;68.97;54.40;87.22;;
72466;Laerm;60471;52.150;4.508;2024-03-22T10:51:51;71.94;55.65;98.16;;
72466;Laerm;60471;52.150;4.508;2024-03-22T10:54:22;69.55;54.43;88.06;;
72466;Laerm;60471;52.150;4.508;2024-03-22T10:56:51;69.09;53.44;87.69;;
72466;Laerm;60471;52.150;4.508;2024-03-22T10:59:23;69.09;53.77;87.74;;
72466;Laerm;60471;52.150;4.508;2024-03-22T11:01:50;69.20;52.89;86.87;;
72466;Laerm;60471;52.150;4.508;2024-03-22T11:04:20;69.15;52.38;87.84;;
72466;Laerm;60471;52.150;4.508;2024-03-22T11:06:50;68.76;53.85;86.21;;
72466;Laerm;60471;52.150;4.508;2024-03-22T11:09:26;68.53;52.99;86.44;;
72466;Laerm;60471;52.150;4.508;2024-03-22T11:11:55;68.65;52.36;87.57;;
72466;Laerm;60471;52.150;4.508;2024-03-22T11:14:22;69.20;52.60;87.94;;
72466;Laerm;60471;52.150;4.508;2024-03-22T11:16:52;68.83;51.43;87.82;;
72466;Laerm;60471;52.150;4.508;2024-03-22T11:19:21;68.75;51.55;86.96;;
72466;Laerm;60471;52.150;4.508;2024-03-22T11:21:47;69.25;51.66;88.99;;
72466;Laerm;60471;52.150;4.508;2024-03-22T11:24:15;69.29;53.85;88.22;;
72466;Laerm;60471;52.150;4.508;2024-03-22T11:26:42;68.83;54.30;87.11;;
72466;Laerm;60471;52.150;4.508;2024-03-22T11:29:10;68.97;52.87;88.21;;
72466;Laerm;60471;52.150;4.508;2024-03-22T11:31:36;69.14;53.11;87.01;;
72466;Laerm;60471;52.150;4.508;2024-03-22T11:34:02;69.43;52.03;88.95;;
72466;Laerm;60471;52.150;4.508;2024-03-22T11:36:29;69.00;52.02;88.26;;
72466;Laerm;60471;52.150;4.508;2024-03-22T11:38:56;69.17;52.75;88.24;;
72466;Laerm;60471;52.150;4.508;2024-03-22T11:41:28;69.01;52.05;88.77;;
72466;Laerm;60471;52.150;4.508;2024-03-22T11:43:56;69.31;53.13;88.59;;
72466;Laerm;60471;52.150;4.508;2024-03-22T11:46:24;69.15;50.82;87.81;;
72466;Laerm;60471;52.150;4.508;2024-03-22T11:48:54;68.84;50.23;87.56;;
72466;Laerm;60471;52.150;4.508;2024-03-22T11:51:21;68.94;49.68;86.51;;
72466;Laerm;60471;52.150;4.508;2024-03-22T11:53:50;68.74;51.01;86.41;;
72466;Laerm;60471;52.150;4.508;2024-03-22T11:56:20;68.94;50.94;87.30;;
72466;Laerm;60471;52.150;4.508;2024-03-22T11:58:48;69.25;52.27;87.36;;
72466;Laerm;60471;52.150;4.508;2024-03-22T12:01:16;69.42;56.27;87.74;;
72466;Laerm;60471;52.150;4.508;2024-03-22T12:03:44;69.43;53.19;87.56;;
72466;Laerm;60471;52.150;4.508;2024-03-22T12:06:10;69.18;51.84;87.20;;
72466;Laerm;60471;52.150;4.508;2024-03-22T12:08:38;69.49;52.37;87.29;;
72466;Laerm;60471;52.150;4.508;2024-03-22T12:11:10;69.72;51.70;89.21;;
72466;Laerm;60471;52.150;4.508;2024-03-22T12:13:38;69.29;52.27;87.92;;
72466;Laerm;60471;52.150;4.508;2024-03-22T12:16:05;69.23;50.58;88.47;;
72466;Laerm;60471;52.150;4.508;2024-03-22T12:18:31;69.29;53.67;88.92;;
72466;Laerm;60471;52.150;4.508;2024-03-22T12:20:58;69.44;51.88;89.38;;
72466;Laerm;60471;52.150;4.508;2024-03-22T12:23:24;69.13;51.24;87.72;;
72466;Laerm;60471;52.150;4.508;2024-03-22T12:25:51;69.55;51.15;88.50;;
72466;Laerm;60471;52.150;4.508;2024-03-22T12:28:20;68.96;50.90;86.93;;
72466;Laerm;60471;52.150;4.508;2024-03-22T12:30:48;69.45;52.96;87.82;;
72466;Laerm;60471;52.150;4.508;2024-03-22T12:33:15;69.16;52.51;87.58;;
72466;Laerm;60471;52.150;4.508;2024-03-22T12:35:42;69.40;50.38;88.24;;
72466;Laerm;60471;52.150;4.508;2024-03-22T12:38:09;69.39;49.74;86.61;;
72466;Laerm;60471;52.150;4.508;2024-03-22T12:40:38;69.33;53.03;87.56;;
72466;Laerm;60471;52.150;4.508;2024-03-22T12:43:04;69.22;49.42;88.72;;
72466;Laerm;60471;52.150;4.508;2024-03-22T12:45:31;69.28;51.68;89.25;;
72466;Laerm;60471;52.150;4.508;2024-03-22T12:47:58;69.14;50.78;86.33;;
72466;Laerm;60471;52.150;4.508;2024-03-22T12:50:26;69.57;50.82;90.03;;
72466;Laerm;60471;52.150;4.508;2024-03-22T12:52:53;69.24;49.54;87.63;;
72466;Laerm;60471;52.150;4.508;2024-03-22T12:55:22;69.14;50.73;86.71;;
72466;Laerm;60471;52.150;4.508;2024-03-22T12:57:48;69.16;49.80;86.77;;
72466;Laerm;60471;52.150;4.508;2024-03-22T13:00:15;69.27;50.32;87.26;;
72466;Laerm;60471;52.150;4.508;2024-03-22T13:02:45;69.14;51.76;87.44;;
72466;Laerm;60471;52.150;4.508;2024-03-22T13:05:13;69.28;52.41;88.39;;
72466;Laerm;60471;52.150;4.508;2024-03-22T13:07:39;69.19;51.54;88.82;;
72466;Laerm;60471;52.150;4.508;2024-03-22T13:10:06;69.26;50.21;87.34;;
72466;Laerm;60471;52.150;4.508;2024-03-22T13:12:32;69.31;50.28;87.71;;
72466;Laerm;60471;52.150;4.508;2024-03-22T13:15:01;69.12;50.71;87.73;;
72466;Laerm;60471;52.150;4.508;2024-03-22T13:17:28;69.17;51.99;87.62;;
72466;Laerm;60471;52.150;4.508;2024-03-22T13:19:54;69.38;49.77;88.14;;
72466;Laerm;60471;52.150;4.508;2024-03-22T13:22:20;69.25;50.73;87.74;;
72466;Laerm;60471;52.150;4.508;2024-03-22T13:24:47;69.34;49.62;86.91;;
72466;Laerm;60471;52.150;4.508;2024-03-22T13:27:15;69.27;47.25;88.17;;
72466;Laerm;60471;52.150;4.508;2024-03-22T13:29:41;68.99;48.66;87.59;;
72466;Laerm;60471;52.150;4.508;2024-03-22T13:32:07;69.25;49.60;90.12;;
72466;Laerm;60471;52.150;4.508;2024-03-22T13:34:37;69.19;49.92;88.77;;
72466;Laerm;60471;52.150;4.508;2024-03-22T13:37:03;69.02;48.12;87.26;;
72466;Laerm;60471;52.150;4.508;2024-03-22T13:39:29;69.21;49.99;87.59;;
72466;Laerm;60471;52.150;4.508;2024-03-22T13:41:56;69.21;49.55;87.53;;
72466;Laerm;60471;52.150;4.508;2024-03-22T13:44:24;69.27;49.77;88.62;;